createdAt,value
2022-09-10T00:02:02.276Z,12.90
2022-09-10T00:04:30.147Z,12.90
2022-09-10T00:06:57.161Z,12.80
2022-09-10T00:09:24.223Z,12.90
2022-09-10T00:11:51.090Z,12.80
2022-09-10T00:14:21.111Z,12.70
2022-09-10T00:16:48.719Z,12.70
2022-09-10T00:19:16.770Z,12.70
2022-09-10T00:21:46.895Z,12.70
2022-09-10T00:24:14.417Z,12.70
2022-09-10T00:26:41.880Z,12.80
2022-09-10T00:29:11.106Z,12.70
2022-09-10T00:31:40.094Z,12.70
2022-09-10T00:34:07.333Z,12.70
2022-09-10T00:36:38.989Z,12.70
2022-09-10T00:39:10.066Z,12.60
2022-09-10T00:41:40.265Z,12.70
2022-09-10T00:44:39.575Z,12.50
2022-09-10T00:47:17.229Z,12.60
2022-09-10T00:49:59.293Z,14.00
2022-09-10T00:52:27.834Z,12.60
2022-09-10T00:54:55.252Z,12.40
2022-09-10T00:57:24.062Z,12.50
2022-09-10T00:59:56.023Z,12.50
2022-09-10T01:02:23.085Z,12.50
2022-09-10T01:04:50.640Z,12.40
2022-09-10T01:07:19.364Z,12.30
2022-09-10T01:09:46.344Z,12.40
2022-09-10T01:12:50.891Z,12.30
2022-09-10T01:15:35.604Z,12.40
2022-09-10T01:18:17.864Z,12.50
2022-09-10T01:21:15.752Z,12.40
2022-09-10T01:23:48.871Z,12.50
2022-09-10T01:26:37.284Z,12.40
2022-09-10T01:29:13.983Z,12.40
2022-09-10T01:32:08.450Z,12.50
2022-09-10T01:34:57.592Z,12.40
2022-09-10T01:37:30.215Z,12.40
2022-09-10T01:39:59.032Z,12.40
2022-09-10T01:42:29.523Z,12.40
2022-09-10T01:44:58.086Z,12.40
2022-09-10T01:47:54.073Z,12.30
2022-09-10T01:50:43.486Z,12.40
2022-09-10T01:53:34.977Z,12.40
2022-09-10T01:56:03.055Z,12.40
2022-09-10T01:58:41.756Z,12.40
2022-09-10T02:01:32.181Z,12.40
2022-09-10T02:04:05.009Z,12.50
2022-09-10T02:06:36.436Z,12.40
2022-09-10T02:09:04.463Z,12.40
2022-09-10T02:11:43.147Z,12.30
2022-09-10T02:14:10.053Z,12.40
2022-09-10T02:16:40.830Z,12.30
2022-09-10T02:19:08.262Z,12.30
2022-09-10T02:21:36.874Z,12.40
2022-09-10T02:24:10.128Z,12.40
2022-09-10T02:26:40.770Z,12.40
2022-09-10T02:29:08.738Z,12.40
2022-09-10T02:31:36.123Z,12.40
2022-09-10T02:34:05.722Z,12.40
2022-09-10T02:36:32.905Z,12.40
2022-09-10T02:39:03.087Z,12.40
2022-09-10T02:41:32.620Z,12.30
2022-09-10T02:44:00.117Z,12.40
2022-09-10T02:46:27.128Z,12.30
2022-09-10T02:48:55.194Z,12.30
2022-09-10T02:51:23.303Z,12.40
2022-09-10T02:53:50.722Z,12.40
2022-09-10T02:56:19.636Z,12.40
2022-09-10T02:58:46.740Z,12.40
2022-09-10T03:01:19.571Z,12.40
2022-09-10T03:03:50.807Z,12.40
2022-09-10T03:06:18.323Z,12.30
2022-09-10T03:08:45.331Z,12.30
2022-09-10T03:11:13.798Z,12.40
2022-09-10T03:13:40.853Z,12.30
2022-09-10T03:16:09.924Z,12.30
2022-09-10T03:18:36.843Z,12.30
2022-09-10T03:21:15.214Z,12.30
2022-09-10T03:23:44.912Z,12.30
2022-09-10T03:26:14.127Z,12.30
2022-09-10T03:28:43.669Z,12.30
2022-09-10T03:31:11.745Z,12.30
2022-09-10T03:33:38.647Z,12.40
2022-09-10T03:36:05.991Z,12.40
2022-09-10T03:38:32.941Z,12.30
2022-09-10T03:41:01.499Z,12.30
2022-09-10T03:43:28.601Z,12.30
2022-09-10T03:45:55.492Z,12.30
2022-09-10T03:48:23.069Z,12.40
2022-09-10T03:50:53.262Z,12.40
2022-09-10T03:53:21.403Z,12.40
2022-09-10T03:55:49.805Z,12.40
2022-09-10T03:58:18.209Z,12.40
2022-09-10T04:00:46.639Z,12.40
2022-09-10T04:03:14.629Z,12.40
2022-09-10T04:05:44.219Z,12.30
2022-09-10T04:08:12.697Z,12.40
2022-09-10T04:10:40.667Z,12.30
2022-09-10T04:13:07.822Z,12.40
2022-09-10T04:15:34.919Z,12.40
2022-09-10T04:18:01.799Z,12.30
2022-09-10T04:20:28.890Z,12.30
2022-09-10T04:22:56.736Z,12.30
2022-09-10T04:27:51.319Z,12.40
2022-09-10T04:30:19.410Z,12.40
2022-09-10T04:32:46.937Z,12.30
2022-09-10T04:35:15.531Z,12.50
2022-09-10T04:37:43.251Z,12.50
2022-09-10T04:40:10.906Z,12.50
2022-09-10T04:42:38.362Z,12.50
2022-09-10T04:45:06.173Z,12.40
2022-09-10T04:47:34.171Z,12.40
2022-09-10T04:50:01.663Z,12.30
2022-09-10T04:52:29.007Z,12.20
2022-09-10T04:54:55.854Z,12.30
2022-09-10T04:57:23.809Z,12.30
2022-09-10T04:59:50.644Z,12.30
2022-09-10T05:02:17.492Z,12.30
2022-09-10T05:04:44.952Z,12.30
2022-09-10T05:07:11.814Z,12.40
2022-09-10T05:09:38.628Z,12.30
2022-09-10T05:12:05.870Z,12.40
2022-09-10T05:14:33.983Z,12.30
2022-09-10T05:17:00.921Z,12.30
2022-09-10T05:19:27.780Z,12.40
2022-09-10T05:21:54.670Z,12.50
2022-09-10T05:24:21.481Z,12.40
2022-09-10T05:26:48.842Z,12.40
2022-09-10T05:29:16.624Z,12.40
2022-09-10T05:31:44.522Z,12.50
2022-09-10T05:34:11.448Z,12.40
2022-09-10T05:36:38.363Z,12.50
2022-09-10T05:39:05.510Z,12.50
2022-09-10T05:41:32.556Z,12.60
2022-09-10T05:44:00.110Z,12.60
2022-09-10T05:46:28.501Z,12.50
2022-09-10T05:48:55.426Z,12.60
2022-09-10T05:51:22.599Z,12.60
2022-09-10T05:53:49.997Z,12.60
2022-09-10T05:56:16.954Z,12.70
2022-09-10T05:58:45.370Z,12.60
2022-09-10T06:01:12.425Z,12.60
2022-09-10T06:03:40.516Z,12.50
2022-09-10T06:06:07.888Z,12.60
2022-09-10T06:11:06.096Z,12.60
2022-09-10T06:13:35.126Z,12.50
2022-09-10T06:16:02.390Z,12.30
2022-09-10T06:18:30.092Z,12.40
2022-09-10T06:21:09.029Z,12.50
2022-09-10T06:23:42.411Z,12.50
2022-09-10T06:26:20.209Z,12.50
2022-09-10T06:28:47.958Z,12.50
2022-09-10T06:31:17.332Z,12.60
2022-09-10T06:33:45.058Z,12.60
2022-09-10T06:36:11.935Z,12.50
2022-09-10T06:38:38.917Z,12.60
2022-09-10T06:41:12.091Z,12.60
2022-09-10T06:43:41.720Z,12.60
2022-09-10T06:46:44.183Z,12.60
2022-09-10T06:49:05.115Z,12.70
2022-09-10T06:51:35.380Z,12.80
2022-09-10T06:54:02.935Z,12.80
2022-09-10T06:56:30.253Z,12.70
2022-09-10T06:59:02.371Z,12.80
2022-09-10T07:01:29.631Z,13.00
2022-09-10T07:03:58.542Z,13.00
2022-09-10T07:06:27.012Z,13.10
2022-09-10T07:08:55.334Z,12.90
2022-09-10T07:11:22.855Z,12.90
2022-09-10T07:13:52.262Z,12.90
2022-09-10T07:16:20.713Z,12.90
2022-09-10T07:18:52.707Z,12.80
2022-09-10T07:21:20.473Z,12.90
2022-09-10T07:23:54.716Z,12.90
2022-09-10T07:26:21.573Z,13.00
2022-09-10T07:28:48.755Z,13.00
2022-09-10T07:31:18.266Z,13.00
2022-09-10T07:33:47.261Z,12.90
2022-09-10T07:36:14.969Z,12.90
2022-09-10T07:38:42.405Z,12.90
2022-09-10T07:41:13.221Z,12.90
2022-09-10T07:43:41.730Z,12.90
2022-09-10T07:46:28.496Z,13.00
2022-09-10T07:49:00.172Z,13.00
2022-09-10T07:51:29.620Z,13.00
2022-09-10T07:53:58.636Z,13.00
2022-09-10T07:56:25.974Z,13.10
2022-09-10T07:58:54.008Z,13.00
2022-09-10T08:01:21.573Z,13.10
2022-09-10T08:03:48.747Z,13.10
2022-09-10T08:06:16.410Z,13.10
2022-09-10T08:08:43.681Z,13.20
2022-09-10T08:11:17.465Z,13.10
2022-09-10T08:13:50.117Z,13.00
2022-09-10T08:16:20.090Z,13.10
2022-09-10T08:18:47.894Z,13.10
2022-09-10T08:21:15.709Z,13.10
2022-09-10T08:23:44.154Z,13.00
2022-09-10T08:26:11.059Z,13.10
2022-09-10T08:28:38.157Z,13.20
2022-09-10T08:31:09.935Z,13.20
2022-09-10T08:33:40.677Z,13.20
2022-09-10T08:36:15.191Z,13.20
2022-09-10T08:38:42.886Z,13.20
2022-09-10T08:41:14.208Z,13.20
2022-09-10T08:43:50.096Z,13.30
2022-09-10T08:46:29.399Z,13.30
2022-09-10T08:49:12.898Z,13.30
2022-09-10T08:51:50.902Z,13.40
2022-09-10T08:54:25.872Z,13.30
2022-09-10T08:56:58.418Z,13.30
2022-09-10T08:59:32.659Z,13.40
2022-09-10T09:02:47.353Z,13.40
2022-09-10T09:05:18.076Z,13.40
2022-09-10T09:07:45.517Z,13.40
2022-09-10T09:10:45.936Z,13.30
2022-09-10T09:13:34.730Z,13.30
2022-09-10T09:16:13.402Z,13.30
2022-09-10T09:19:09.393Z,13.40
2022-09-10T09:21:53.622Z,13.40
2022-09-10T09:24:48.348Z,13.30
2022-09-10T09:27:20.256Z,13.40
2022-09-10T09:30:01.740Z,13.50
2022-09-10T09:32:33.515Z,13.40
2022-09-10T09:35:17.479Z,13.40
2022-09-10T09:37:49.057Z,13.40
2022-09-10T09:40:38.449Z,13.40
2022-09-10T09:43:24.155Z,13.50
2022-09-10T09:45:53.523Z,13.40
2022-09-10T09:48:22.397Z,13.50
2022-09-10T09:50:54.320Z,13.60
2022-09-10T09:53:27.115Z,13.70
2022-09-10T09:56:07.338Z,13.80
2022-09-10T09:58:36.699Z,13.70
2022-09-10T10:03:35.531Z,13.60
2022-09-10T10:06:10.607Z,13.60
2022-09-10T10:08:54.392Z,13.70
2022-09-10T10:11:22.441Z,13.70
2022-09-10T10:13:51.703Z,13.60
2022-09-10T10:16:35.811Z,13.50
2022-09-10T10:19:03.072Z,13.50
2022-09-10T10:21:36.891Z,13.50
2022-09-10T10:24:04.148Z,13.60
2022-09-10T10:26:33.773Z,13.50
2022-09-10T10:29:18.453Z,13.60
2022-09-10T10:31:48.291Z,13.60
2022-09-10T10:34:40.270Z,13.50
2022-09-10T10:37:20.405Z,13.60
2022-09-10T10:40:01.330Z,13.60
2022-09-10T10:43:12.099Z,13.40
2022-09-10T10:45:47.577Z,13.40
2022-09-10T10:49:03.539Z,13.50
2022-09-10T10:51:42.651Z,13.60
2022-09-10T10:54:23.958Z,13.60
2022-09-10T10:57:18.338Z,13.70
2022-09-10T11:00:09.422Z,13.60
2022-09-10T11:02:45.165Z,13.60
2022-09-10T11:05:38.482Z,13.60
2022-09-10T11:08:15.191Z,13.70
2022-09-10T11:10:47.394Z,13.60
2022-09-10T11:13:25.702Z,13.60
2022-09-10T11:16:01.371Z,13.50
2022-09-10T11:18:34.363Z,13.50
2022-09-10T11:21:07.024Z,13.60
2022-09-10T11:23:41.089Z,13.70
2022-09-10T11:26:12.583Z,13.60
2022-09-10T11:29:08.094Z,13.50
2022-09-10T11:31:47.890Z,13.50
2022-09-10T11:34:37.174Z,13.60
2022-09-10T11:37:29.465Z,13.70
2022-09-10T11:40:02.658Z,13.70
2022-09-10T11:42:51.103Z,13.70
2022-09-10T11:45:48.738Z,13.70
2022-09-10T11:48:26.200Z,13.70
2022-09-10T11:50:57.676Z,13.70
2022-09-10T11:53:25.810Z,13.50
2022-09-10T11:56:26.123Z,13.60
2022-09-10T11:58:58.460Z,13.50
2022-09-10T12:01:34.158Z,13.60
2022-09-10T12:04:30.570Z,13.60
2022-09-10T12:06:57.599Z,13.60
2022-09-10T12:09:38.812Z,13.50
2022-09-10T12:12:17.850Z,13.80
2022-09-10T12:14:44.943Z,13.60
2022-09-10T12:17:27.375Z,13.70
2022-09-10T12:19:57.333Z,13.60
2022-09-10T12:22:37.090Z,13.60
2022-09-10T12:25:23.656Z,13.60
2022-09-10T12:27:59.274Z,13.50
2022-09-10T12:30:33.340Z,13.50
2022-09-10T12:33:13.562Z,13.60
2022-09-10T12:35:48.944Z,13.60
2022-09-10T12:38:50.012Z,13.60
2022-09-10T12:41:27.217Z,13.60
2022-09-10T12:43:58.976Z,13.60
2022-09-10T12:46:26.976Z,13.50
2022-09-10T12:48:57.666Z,13.50
2022-09-10T12:51:44.229Z,13.50
2022-09-10T12:54:55.763Z,13.50
2022-09-10T12:57:25.539Z,13.40
2022-09-10T13:00:13.937Z,13.40
2022-09-10T13:02:53.950Z,13.40
2022-09-10T13:05:36.696Z,13.30
2022-09-10T13:08:31.970Z,13.40
2022-09-10T13:10:59.406Z,13.30
2022-09-10T13:13:34.309Z,13.40
2022-09-10T13:16:02.184Z,13.40
2022-09-10T13:18:31.903Z,13.40
2022-09-10T13:20:59.439Z,13.40
2022-09-10T13:23:47.618Z,13.40
2022-09-10T13:26:33.818Z,13.40
2022-09-10T13:29:25.539Z,13.40
2022-09-10T13:32:08.331Z,13.40
2022-09-10T13:34:48.613Z,13.40
2022-09-10T13:38:00.130Z,13.40
2022-09-10T13:40:49.901Z,13.40
2022-09-10T13:43:59.460Z,13.40
2022-09-10T13:46:36.208Z,13.40
2022-09-10T13:49:37.742Z,13.30
2022-09-10T13:52:11.122Z,13.30
2022-09-10T13:54:42.999Z,13.20
2022-09-10T13:57:24.691Z,13.20
2022-09-10T13:59:57.679Z,13.30
2022-09-10T14:02:44.437Z,13.20
2022-09-10T14:05:34.269Z,13.30
2022-09-10T14:08:23.517Z,13.30
2022-09-10T14:11:07.084Z,13.30
2022-09-10T14:13:48.709Z,13.30
2022-09-10T14:16:27.237Z,13.30
2022-09-10T14:18:59.356Z,13.20
2022-09-10T14:21:29.538Z,13.30
2022-09-10T14:23:59.060Z,13.30
2022-09-10T14:26:35.027Z,13.40
2022-09-10T14:29:22.002Z,13.30
2022-09-10T14:34:36.384Z,13.20
2022-09-10T14:37:26.112Z,13.30
2022-09-10T14:39:53.072Z,13.20
2022-09-10T14:42:27.270Z,13.20
2022-09-10T14:44:54.557Z,13.20
2022-09-10T14:47:35.020Z,13.30
2022-09-10T14:50:38.762Z,13.20
2022-09-10T14:53:05.603Z,13.20
2022-09-10T14:55:32.765Z,13.20
2022-09-10T14:57:59.991Z,13.10
2022-09-10T15:00:27.148Z,13.10
2022-09-10T15:02:56.095Z,13.10
2022-09-10T15:05:23.009Z,13.10
2022-09-10T15:07:50.455Z,13.20
2022-09-10T15:10:17.360Z,13.20
2022-09-10T15:12:49.814Z,13.20
2022-09-10T15:15:17.991Z,13.30
2022-09-10T15:17:45.327Z,13.30
2022-09-10T15:20:17.038Z,13.30
2022-09-10T15:22:45.111Z,13.30
2022-09-10T15:25:38.582Z,13.20
2022-09-10T15:28:06.956Z,13.10
2022-09-10T15:30:36.043Z,13.20
2022-09-10T15:33:07.074Z,13.10
2022-09-10T15:35:33.912Z,13.10
2022-09-10T15:38:03.566Z,13.10
2022-09-10T15:40:31.327Z,13.10
2022-09-10T15:42:58.243Z,13.20
2022-09-10T15:45:25.328Z,13.10
2022-09-10T15:47:52.271Z,13.00
2022-09-10T15:50:19.104Z,13.00
2022-09-10T15:52:46.027Z,12.90
2022-09-10T15:55:13.358Z,13.00
2022-09-10T15:57:41.133Z,13.00
2022-09-10T16:00:08.904Z,13.00
2022-09-10T16:02:35.902Z,13.00
2022-09-10T16:05:02.859Z,13.10
2022-09-10T16:07:29.820Z,13.00
2022-09-10T16:09:59.175Z,13.00
2022-09-10T16:12:27.515Z,13.00
2022-09-10T16:14:54.662Z,13.00
2022-09-10T16:17:21.583Z,13.00
2022-09-10T16:19:49.641Z,12.90
2022-09-10T16:22:20.441Z,12.90
2022-09-10T16:24:47.926Z,12.80
2022-09-10T16:27:17.615Z,12.80
2022-09-10T16:29:45.250Z,12.90
2022-09-10T16:32:12.975Z,12.90
2022-09-10T16:34:40.184Z,12.80
2022-09-10T16:37:07.135Z,12.90
2022-09-10T16:39:34.356Z,12.80
2022-09-10T16:42:01.223Z,12.80
2022-09-10T16:44:28.797Z,12.80
2022-09-10T16:46:57.811Z,12.90
2022-09-10T16:49:24.698Z,12.70
2022-09-10T16:51:51.561Z,12.80
2022-09-10T16:54:22.497Z,12.70
2022-09-10T16:56:50.254Z,12.50
2022-09-10T16:59:20.355Z,12.50
2022-09-10T17:01:48.796Z,12.60
2022-09-10T17:04:20.648Z,12.60
2022-09-10T17:06:51.257Z,12.60
2022-09-10T17:09:18.522Z,12.50
2022-09-10T17:11:45.474Z,12.40
2022-09-10T17:14:12.872Z,12.50
2022-09-10T17:16:41.651Z,12.50
2022-09-10T17:19:26.590Z,12.60
2022-09-10T17:21:55.729Z,12.60
2022-09-10T17:24:24.511Z,12.60
2022-09-10T17:26:52.346Z,12.60
2022-09-10T17:29:21.130Z,12.60
2022-09-10T17:31:48.632Z,12.50
2022-09-10T17:34:17.201Z,12.60
2022-09-10T17:36:46.642Z,12.50
2022-09-10T17:39:14.033Z,12.50
2022-09-10T17:41:41.458Z,12.50
2022-09-10T17:44:09.357Z,12.60
2022-09-10T17:46:36.351Z,12.50
2022-09-10T17:49:04.394Z,12.50
2022-09-10T17:51:33.142Z,12.50
2022-09-10T17:54:02.533Z,12.50
2022-09-10T17:56:29.715Z,12.50
2022-09-10T17:58:59.289Z,12.40
2022-09-10T18:01:31.650Z,12.50
2022-09-10T18:03:58.729Z,12.50
2022-09-10T18:06:29.010Z,12.30
2022-09-10T18:09:02.987Z,12.40
2022-09-10T18:11:32.510Z,12.50
2022-09-10T18:14:00.173Z,12.40
2022-09-10T18:16:31.553Z,12.40
2022-09-10T18:19:01.189Z,12.40
2022-09-10T18:21:33.534Z,12.40
2022-09-10T18:24:28.466Z,12.40
2022-09-10T18:26:55.582Z,12.50
2022-09-10T18:29:25.362Z,12.50
2022-09-10T18:31:55.811Z,12.50
2022-09-10T18:34:27.774Z,12.50
2022-09-10T18:37:02.694Z,12.40
2022-09-10T18:39:31.941Z,12.30
2022-09-10T18:42:00.957Z,12.30
2022-09-10T18:44:31.414Z,12.30
2022-09-10T18:46:58.496Z,12.10
2022-09-10T18:49:26.217Z,12.10
2022-09-10T18:51:55.100Z,12.10
2022-09-10T18:54:23.304Z,12.10
2022-09-10T18:56:50.636Z,12.10
2022-09-10T18:59:20.318Z,12.00
2022-09-10T19:01:48.896Z,12.00
2022-09-10T19:04:20.072Z,12.00
2022-09-10T19:06:48.333Z,12.00
2022-09-10T19:09:18.054Z,12.10
2022-09-10T19:11:46.802Z,12.20
2022-09-10T19:14:22.045Z,12.10
2022-09-10T19:16:50.723Z,12.10
2022-09-10T19:19:23.775Z,12.00
2022-09-10T19:21:59.523Z,12.00
2022-09-10T19:24:43.944Z,12.00
2022-09-10T19:27:11.204Z,11.90
2022-09-10T19:29:39.025Z,11.90
2022-09-10T19:34:33.502Z,11.80
2022-09-10T19:37:00.399Z,12.10
2022-09-10T19:39:27.259Z,11.90
2022-09-10T19:41:54.122Z,11.90
2022-09-10T19:44:20.996Z,11.90
2022-09-10T19:46:47.819Z,11.70
2022-09-10T19:49:14.667Z,12.00
2022-09-10T19:51:42.032Z,12.00
2022-09-10T19:54:10.047Z,12.00
2022-09-10T19:56:39.916Z,12.00
2022-09-10T20:01:40.366Z,11.90
2022-09-10T20:04:10.050Z,12.00
2022-09-10T20:06:37.548Z,12.00
2022-09-10T20:09:06.473Z,11.70
2022-09-10T20:11:35.284Z,11.80
2022-09-10T20:14:13.607Z,11.60
2022-09-10T20:16:43.695Z,11.60
2022-09-10T20:19:13.161Z,11.50
2022-09-10T20:21:40.262Z,11.50
2022-09-10T20:24:07.838Z,11.60
2022-09-10T20:26:38.212Z,11.50
2022-09-10T20:29:09.632Z,11.60
2022-09-10T20:31:37.189Z,11.60
2022-09-10T20:34:07.254Z,11.70
2022-09-10T20:36:35.923Z,11.70
2022-09-10T20:39:03.202Z,11.70
2022-09-10T20:41:32.692Z,11.70
2022-09-10T20:44:01.887Z,11.70
2022-09-10T20:46:30.975Z,11.60
2022-09-10T20:49:03.283Z,11.60
2022-09-10T20:51:32.820Z,11.50
2022-09-10T20:53:59.921Z,11.60
2022-09-10T20:56:26.870Z,11.60
2022-09-10T21:01:23.431Z,11.60
2022-09-10T21:03:53.753Z,11.60
2022-09-10T21:06:24.098Z,11.70
2022-09-10T21:08:51.904Z,11.70
2022-09-10T21:11:20.937Z,11.60
2022-09-10T21:13:50.446Z,11.50
2022-09-10T21:16:27.002Z,11.40
2022-09-10T21:18:56.652Z,11.40
2022-09-10T21:21:26.931Z,11.50
2022-09-10T21:23:56.466Z,11.50
2022-09-10T21:26:26.248Z,11.50
2022-09-10T21:29:03.681Z,11.50
2022-09-10T21:31:31.405Z,11.60
2022-09-10T21:34:03.116Z,11.50
2022-09-10T21:36:31.991Z,11.50
2022-09-10T21:39:00.869Z,11.50
2022-09-10T21:41:32.328Z,11.40
2022-09-10T21:44:01.136Z,11.40
2022-09-10T21:46:28.666Z,11.50
2022-09-10T21:48:55.933Z,11.40
2022-09-10T21:51:23.583Z,11.50
2022-09-10T21:53:55.047Z,11.50
2022-09-10T21:56:23.382Z,11.50
2022-09-10T21:58:50.304Z,11.50
2022-09-10T22:01:20.096Z,11.50
2022-09-10T22:03:48.559Z,11.50
2022-09-10T22:06:23.163Z,11.50
2022-09-10T22:08:58.847Z,11.50
2022-09-10T22:11:30.508Z,11.40
2022-09-10T22:14:01.130Z,11.40
2022-09-10T22:16:31.193Z,11.40
2022-09-10T22:19:00.464Z,11.50
2022-09-10T22:21:28.000Z,11.40
2022-09-10T22:23:55.002Z,11.30
2022-09-10T22:26:28.246Z,11.30
2022-09-10T22:28:56.078Z,11.30
2022-09-10T22:31:25.812Z,11.40
2022-09-10T22:33:56.543Z,11.40
2022-09-10T22:36:30.986Z,11.40
2022-09-10T22:39:04.234Z,11.40
2022-09-10T22:41:31.854Z,11.30
2022-09-10T22:43:58.835Z,11.20
2022-09-10T22:46:26.936Z,11.30
2022-09-10T22:48:54.087Z,11.40
2022-09-10T22:51:24.202Z,11.40
2022-09-10T22:53:52.935Z,11.50
2022-09-10T22:56:22.270Z,11.40
2022-09-10T22:58:52.696Z,11.40
2022-09-10T23:01:22.039Z,11.30
2022-09-10T23:03:49.022Z,11.20
2022-09-10T23:06:21.861Z,11.10
2022-09-10T23:08:51.840Z,11.20
2022-09-10T23:11:24.799Z,11.20
2022-09-10T23:13:54.152Z,11.20
2022-09-10T23:16:27.302Z,11.10
2022-09-10T23:18:55.973Z,11.10
2022-09-10T23:21:24.894Z,11.00
2022-09-10T23:24:03.529Z,11.10
2022-09-10T23:26:30.802Z,11.10
2022-09-10T23:28:57.879Z,11.20
2022-09-10T23:31:29.490Z,11.10
2022-09-10T23:34:00.867Z,11.10
2022-09-10T23:36:33.021Z,11.10
2022-09-10T23:39:01.262Z,11.20
2022-09-10T23:41:28.463Z,11.20
2022-09-10T23:43:55.487Z,11.10
2022-09-10T23:46:22.474Z,11.20
2022-09-10T23:48:49.463Z,11.20
2022-09-10T23:51:19.295Z,11.20
2022-09-10T23:53:48.081Z,11.20
2022-09-10T23:56:17.462Z,11.20
2022-09-10T23:58:44.743Z,11.20
